Map

Track Data

SID SEASON NUMBER BASIN SUBBASIN NAME ISO_TIME NATURE LAT LON WMO_WIND WMO_PRES WMO_AGENCY TRACK_TYPE DIST2LAND LANDFALL IFLAG USA_AGENCY USA_ATCF_ID USA_LAT USA_LON USA_RECORD USA_STATUS USA_WIND USA_PRES USA_SSHS USA_R34_NE USA_R34_SE USA_R34_SW USA_R34_NW USA_R50_NE USA_R50_SE USA_R50_SW USA_R50_NW USA_R64_NE USA_R64_SE USA_R64_SW USA_R64_NW USA_POCI USA_ROCI USA_RMW USA_EYE TOKYO_LAT TOKYO_LON TOKYO_GRADE TOKYO_WIND TOKYO_PRES TOKYO_R50_DIR TOKYO_R50_LONG TOKYO_R50_SHORT TOKYO_R30_DIR TOKYO_R30_LONG TOKYO_R30_SHORT TOKYO_LAND CMA_LAT CMA_LON CMA_CAT CMA_WIND CMA_PRES HKO_LAT HKO_LON HKO_CAT HKO_WIND HKO_PRES NEWDELHI_LAT NEWDELHI_LON NEWDELHI_GRADE NEWDELHI_WIND NEWDELHI_PRES NEWDELHI_CI NEWDELHI_DP NEWDELHI_POCI REUNION_LAT REUNION_LON REUNION_TYPE REUNION_WIND REUNION_PRES REUNION_TNUM REUNION_CI REUNION_RMW REUNION_R34_NE REUNION_R34_SE REUNION_R34_SW REUNION_R34_NW REUNION_R50_NE REUNION_R50_SE REUNION_R50_SW REUNION_R50_NW REUNION_R64_NE REUNION_R64_SE REUNION_R64_SW REUNION_R64_NW BOM_LAT BOM_LON BOM_TYPE BOM_WIND BOM_PRES BOM_TNUM BOM_CI BOM_RMW BOM_R34_NE BOM_R34_SE BOM_R34_SW BOM_R34_NW BOM_R50_NE BOM_R50_SE BOM_R50_SW BOM_R50_NW BOM_R64_NE BOM_R64_SE BOM_R64_SW BOM_R64_NW BOM_ROCI BOM_POCI BOM_EYE BOM_POS_METHOD BOM_PRES_METHOD NADI_LAT NADI_LON NADI_CAT NADI_WIND NADI_PRES WELLINGTON_LAT WELLINGTON_LON WELLINGTON_WIND WELLINGTON_PRES DS824_LAT DS824_LON DS824_STAGE DS824_WIND DS824_PRES TD9636_LAT TD9636_LON TD9636_STAGE TD9636_WIND TD9636_PRES TD9635_LAT TD9635_LON TD9635_WIND TD9635_PRES TD9635_ROCI NEUMANN_LAT NEUMANN_LON NEUMANN_CLASS NEUMANN_WIND NEUMANN_PRES MLC_LAT MLC_LON MLC_CLASS MLC_WIND MLC_PRES USA_GUST BOM_GUST BOM_GUST_PER REUNION_GUST REUNION_GUST_PER USA_SEAHGT USA_SEARAD_NE USA_SEARAD_SE USA_SEARAD_SW USA_SEARAD_NW STORM_SPEED STORM_DIR
1944264N17137 1944 59 WP MM NOT_NAMED 1944-09-19 12:00:00 NR 17.0000 137.200 main 1368 1329 __________O___ -1 17.0000 137.200 3 8 270
1944264N17137 1944 59 WP MM NOT_NAMED 1944-09-19 15:00:00 NR 17.0004 136.758 main 1329 1280 __________P___ -1 17.0004 136.758 3 9 270
1944264N17137 1944 59 WP MM NOT_NAMED 1944-09-19 18:00:00 NR 17.0003 136.302 main 1280 1231 __________P___ -1 17.0003 136.302 3 9 270
1944264N17137 1944 59 WP MM NOT_NAMED 1944-09-19 21:00:00 NR 17.0001 135.821 main 1231 1183 __________P___ -1 17.0001 135.821 3 10 270
1944264N17137 1944 59 WP MM NOT_NAMED 1944-09-20 00:00:00 NR 17.0000 135.300 main 1183 1135 __________O___ -1 17.0000 135.300 4 10 270
1944264N17137 1944 59 WP MM NOT_NAMED 1944-09-20 03:00:00 NR 17.0000 134.732 main 1126 1079 __________P___ -1 17.0000 134.732 4 11 270
1944264N17137 1944 59 WP MM NOT_NAMED 1944-09-20 06:00:00 NR 17.0000 134.130 main 1070 1014 __________P___ -1 17.0000 134.130 4 12 270
1944264N17137 1944 59 WP MM NOT_NAMED 1944-09-20 09:00:00 NR 17.0000 133.513 main 1014 960 __________P___ -1 17.0000 133.513 4 12 270
1944264N17137 1944 59 WP MM NOT_NAMED 1944-09-20 12:00:00 NR 17.0000 132.900 main 960 916 __________O___ -1 17.0000 132.900 4 11 269
1944264N17137 1944 59 WP MM NOT_NAMED 1944-09-20 15:00:00 NR 16.9867 132.342 main 907 865 __________P___ -1 16.9867 132.342 4 11 269
1944264N17137 1944 59 WP MM NOT_NAMED 1944-09-20 18:00:00 NR 16.9759 131.787 main 865 807 __________P___ -1 16.9759 131.787 4 11 269
1944264N17137 1944 59 WP MM NOT_NAMED 1944-09-20 21:00:00 NR 16.9772 131.214 main 807 749 __________P___ -1 16.9772 131.214 4 11 271
1944264N17137 1944 59 WP MM NOT_NAMED 1944-09-21 00:00:00 NR 17.0000 130.600 main 749 693 __________O___ -1 17.0000 130.600 4 12 273
1944264N17137 1944 59 WP MM NOT_NAMED 1944-09-21 03:00:00 NR 17.0370 129.922 main 684 626 __________P___ -1 17.0370 129.922 4 13 274
1944264N17137 1944 59 WP MM NOT_NAMED 1944-09-21 06:00:00 NR 17.0972 129.202 main 626 573 __________P___ -1 17.0972 129.202 4 14 276
1944264N17137 1944 59 WP MM NOT_NAMED 1944-09-21 09:00:00 NR 17.1837 128.456 main 573 518 __________P___ -1 17.1837 128.456 4 15 278
1944264N17137 1944 59 WP MM NOT_NAMED 1944-09-21 12:00:00 NR 17.3000 127.700 main 518 469 __________O___ -1 17.3000 127.700 4 15 279
1944264N17137 1944 59 WP MM NOT_NAMED 1944-09-21 15:00:00 NR 17.4305 126.905 main 469 398 __________P___ -1 17.4305 126.905 4 15 281
1944264N17137 1944 59 WP MM NOT_NAMED 1944-09-21 18:00:00 NR 17.5909 126.110 main 388 320 __________P___ -1 17.5909 126.110 4 15 283
1944264N17137 1944 59 WP MM NOT_NAMED 1944-09-21 21:00:00 NR 17.7807 125.361 main 320 255 __________P___ -1 17.7807 125.361 4 14 287
1944264N17137 1944 59 WP MM NOT_NAMED 1944-09-22 00:00:00 NR 18.0000 124.700 main 255 200 __________O___ -1 18.0000 124.700 4 12 291
1944264N17137 1944 59 WP MM NOT_NAMED 1944-09-22 03:00:00 NR 18.2164 124.169 main 200 158 __________P___ -1 18.2164 124.169 4 10 297
1944264N17137 1944 59 WP MM NOT_NAMED 1944-09-22 06:00:00 NR 18.4658 123.729 main 148 120 __________P___ -1 18.4658 123.729 4 9 305
1944264N17137 1944 59 WP MM NOT_NAMED 1944-09-22 09:00:00 NR 18.7574 123.350 main 114 107 __________P___ -1 18.7574 123.350 4 9 313
1944264N17137 1944 59 WP MM NOT_NAMED 1944-09-22 12:00:00 NR 19.1000 123.000 main 107 103 __________O___ -1 19.1000 123.000 4 10 317
1944264N17137 1944 59 WP MM NOT_NAMED 1944-09-22 15:00:00 NR 19.5036 122.608 main 127 127 __________P___ -1 19.5036 122.608 4 11 320
1944264N17137 1944 59 WP MM NOT_NAMED 1944-09-22 18:00:00 NR 19.9549 122.240 main 178 178 __________P___ -1 19.9549 122.240 4 11 324
1944264N17137 1944 59 WP MM NOT_NAMED 1944-09-22 21:00:00 NR 20.4287 121.902 main 197 133 __________P___ -1 20.4287 121.902 4 11 328
1944264N17137 1944 59 WP MM NOT_NAMED 1944-09-23 00:00:00 NR 20.9000 121.600 main 133 84 __________O___ -1 20.9000 121.600 4 11 331
1944264N17137 1944 59 WP MM NOT_NAMED 1944-09-23 03:00:00 NR 21.3520 121.346 main 69 23 __________P___ -1 21.3520 121.346 4 10 334
1944264N17137 1944 59 WP MM NOT_NAMED 1944-09-23 06:00:00 NR 21.7943 121.126 main 23 0 __________P___ -1 21.7943 121.126 4 10 335
1944264N17137 1944 59 WP MM NOT_NAMED 1944-09-23 09:00:00 NR 22.2146 120.918 main 0 0 __________P___ -1 22.2146 120.918 4 9 334
1944264N17137 1944 59 WP MM NOT_NAMED 1944-09-23 12:00:00 NR 22.6000 120.700 main 0 0 __________O___ -1 22.6000 120.700 4 8 330
1944264N17137 1944 59 WP MM NOT_NAMED 1944-09-23 15:00:00 NR 22.9420 120.454 main 0 0 __________P___ -1 22.9420 120.454 4 8 324
1944264N17137 1944 59 WP MM NOT_NAMED 1944-09-23 18:00:00 NR 23.2482 120.184 main 0 0 __________P___ -1 23.2482 120.184 4 8 319
1944264N17137 1944 59 WP MM NOT_NAMED 1944-09-23 21:00:00 NR 23.5303 119.896 main 23 20 __________P___ -1 23.5303 119.896 4 8 316
1944264N17137 1944 59 WP MM NOT_NAMED 1944-09-24 00:00:00 NR 23.8000 119.600 main 55 __________O___ -1 23.8000 119.600 4 8 315

Digital Typhoon Data and Search

About IBTrACS Database

This database is a web-friendly format of International Best Track Archive for Climate Stewardship (IBTrACS), a global best track data archive curated by NOAA dating back to 1842.

Updated: 2021-11-26